createdAt,value
2017-09-13T00:00:02.484Z,973.8
2017-09-13T00:01:04.542Z,973.9
2017-09-13T00:02:06.593Z,974
2017-09-13T00:03:08.677Z,973.9
2017-09-13T00:04:10.786Z,973.9
2017-09-13T00:05:13.180Z,973.9
2017-09-13T00:06:15.254Z,973.8
2017-09-13T00:07:17.321Z,973.8
2017-09-13T00:08:19.428Z,973.8
2017-09-13T00:09:21.531Z,973.7
2017-09-13T00:10:23.863Z,973.6
2017-09-13T00:11:25.943Z,973.6
2017-09-13T00:12:28.077Z,973.6
2017-09-13T00:13:30.164Z,973.6
2017-09-13T00:14:32.240Z,973.5
2017-09-13T00:15:34.615Z,973.6
2017-09-13T00:16:36.670Z,973.4
2017-09-13T00:17:38.800Z,973.5
2017-09-13T00:18:40.884Z,973.4
2017-09-13T00:19:42.928Z,973.5
2017-09-13T00:20:45.367Z,973.5
2017-09-13T00:21:47.479Z,973.5
2017-09-13T00:22:49.540Z,973.4
2017-09-13T00:23:51.847Z,973.4
2017-09-13T00:24:53.920Z,973.4
2017-09-13T00:25:56.260Z,973.4
2017-09-13T00:26:58.342Z,973.4
2017-09-13T00:28:01.829Z,973.5
2017-09-13T00:29:03.853Z,973.5
2017-09-13T00:30:05.907Z,973.4
2017-09-13T00:31:08.305Z,973.4
2017-09-13T00:32:10.397Z,973.4
2017-09-13T00:33:12.426Z,973.3
2017-09-13T00:34:14.522Z,973.3
2017-09-13T00:35:16.584Z,973.2
2017-09-13T00:36:18.971Z,973.2
2017-09-13T00:37:21.048Z,973.2
2017-09-13T00:38:23.087Z,973.2
2017-09-13T00:39:25.094Z,973.2
2017-09-13T00:40:27.204Z,973.1
2017-09-13T00:41:29.618Z,973.1
2017-09-13T00:42:31.742Z,973.2
2017-09-13T00:43:33.768Z,973.2
2017-09-13T00:44:35.813Z,973.3
2017-09-13T00:45:37.893Z,973.1
2017-09-13T00:46:40.452Z,973.1
2017-09-13T00:47:42.552Z,973.1
2017-09-13T00:48:44.596Z,973.1
2017-09-13T00:49:46.682Z,973.1
2017-09-13T00:50:48.743Z,973.1
2017-09-13T00:51:51.276Z,973.1
2017-09-13T00:52:53.361Z,973
2017-09-13T00:53:55.425Z,973
2017-09-13T00:54:57.474Z,972.9
2017-09-13T00:55:59.611Z,972.9
2017-09-13T00:57:02.098Z,972.9
2017-09-13T00:58:04.136Z,972.9
2017-09-13T00:59:06.206Z,972.9
2017-09-13T01:00:08.294Z,972.8
2017-09-13T01:01:10.347Z,972.8
2017-09-13T01:02:12.807Z,972.7
2017-09-13T01:03:14.970Z,972.7
2017-09-13T01:04:17.060Z,972.7
2017-09-13T01:05:19.079Z,972.7
2017-09-13T01:06:21.180Z,972.6
2017-09-13T01:07:23.535Z,972.6
2017-09-13T01:08:25.616Z,972.5
2017-09-13T01:09:27.797Z,972.5
2017-09-13T01:10:29.923Z,972.5
2017-09-13T01:11:32.001Z,972.6
2017-09-13T01:12:34.568Z,972.5
2017-09-13T01:13:36.628Z,972.4
2017-09-13T01:14:38.699Z,972.4
2017-09-13T01:15:40.801Z,972.5
2017-09-13T01:16:42.926Z,972.4
2017-09-13T01:17:45.347Z,972.4
2017-09-13T01:18:47.459Z,972.5
2017-09-13T01:19:49.559Z,972.4
2017-09-13T01:20:51.648Z,972.3
2017-09-13T01:21:53.741Z,972.3
2017-09-13T01:22:56.189Z,972.3
2017-09-13T01:23:58.316Z,972.2
2017-09-13T01:25:00.443Z,972.2
2017-09-13T01:26:02.548Z,972.3
2017-09-13T01:27:04.637Z,972.2
2017-09-13T01:28:07.040Z,972.3
2017-09-13T01:29:09.132Z,972.3
2017-09-13T01:30:11.193Z,972.3
2017-09-13T01:31:13.260Z,972.2
2017-09-13T01:32:15.364Z,972.3
2017-09-13T01:33:17.720Z,972.2
2017-09-13T01:34:19.850Z,972.3
2017-09-13T01:35:21.930Z,972.1
2017-09-13T01:36:24.068Z,972.2
2017-09-13T01:37:26.177Z,972.1
2017-09-13T01:38:28.648Z,972.2
2017-09-13T01:39:30.757Z,972.1
2017-09-13T01:40:32.851Z,972
2017-09-13T01:41:35.603Z,972
2017-09-13T01:42:37.766Z,971.9
2017-09-13T01:43:40.326Z,972
2017-09-13T01:44:42.474Z,971.9
2017-09-13T01:45:44.553Z,972
2017-09-13T01:46:46.626Z,972
2017-09-13T01:47:48.709Z,971.8
2017-09-13T01:48:51.251Z,971.8
2017-09-13T01:49:53.335Z,971.8
2017-09-13T01:50:55.417Z,971.7
2017-09-13T01:51:57.524Z,971.9
2017-09-13T01:52:59.635Z,971.8
2017-09-13T01:54:02.053Z,971.8
2017-09-13T01:55:04.196Z,971.8
2017-09-13T01:56:06.324Z,971.8
2017-09-13T01:57:08.406Z,971.8
2017-09-13T01:58:10.523Z,971.7
2017-09-13T01:59:13.025Z,971.8
2017-09-13T02:00:15.145Z,971.8
2017-09-13T02:01:17.266Z,971.7
2017-09-13T02:02:19.374Z,971.6
2017-09-13T02:03:21.522Z,971.6
2017-09-13T02:04:24.003Z,971.5
2017-09-13T02:05:26.416Z,971.5
2017-09-13T02:06:28.510Z,971.7
2017-09-13T02:07:30.654Z,971.5
2017-09-13T02:08:32.810Z,971.5
2017-09-13T02:09:35.342Z,971.4
2017-09-13T02:10:37.549Z,971.4
2017-09-13T02:11:39.674Z,971.3
2017-09-13T02:12:41.794Z,971.4
2017-09-13T02:13:43.915Z,971.2
2017-09-13T02:14:46.289Z,971.2
2017-09-13T02:15:48.362Z,971.3
2017-09-13T02:16:50.439Z,971.1
2017-09-13T02:17:52.509Z,970.9
2017-09-13T02:18:54.577Z,971
2017-09-13T02:19:56.968Z,970.9
2017-09-13T02:20:59.029Z,971.1
2017-09-13T02:22:01.148Z,970.9
2017-09-13T02:23:03.227Z,970.8
2017-09-13T02:24:05.349Z,970.8
2017-09-13T02:25:07.787Z,970.9
2017-09-13T02:26:09.916Z,970.6
2017-09-13T02:27:12.024Z,970.7
2017-09-13T02:28:14.167Z,970.7
2017-09-13T02:29:16.283Z,970.6
2017-09-13T02:30:18.887Z,970.6
2017-09-13T02:31:20.987Z,970.6
2017-09-13T02:32:23.100Z,970.7
2017-09-13T02:33:25.182Z,970.7
2017-09-13T02:34:27.273Z,970.6
2017-09-13T02:35:29.645Z,970.6
2017-09-13T02:36:31.736Z,970.5
2017-09-13T02:37:33.815Z,970.5
2017-09-13T02:38:35.915Z,970.5
2017-09-13T02:39:38.060Z,970.5
2017-09-13T02:40:40.594Z,970.5
2017-09-13T02:41:42.693Z,970.5
2017-09-13T02:42:44.790Z,970.6
2017-09-13T02:43:46.899Z,970.7
2017-09-13T02:44:49.143Z,970.7
2017-09-13T02:45:51.570Z,970.6
2017-09-13T02:46:53.673Z,970.7
2017-09-13T02:47:55.740Z,970.5
2017-09-13T02:48:57.810Z,970.5
2017-09-13T02:49:59.950Z,970.5
2017-09-13T02:51:02.510Z,970.5
2017-09-13T02:52:04.730Z,970.4
2017-09-13T02:53:06.868Z,970.3
2017-09-13T02:54:08.936Z,970.4
2017-09-13T02:55:11.188Z,970.3
2017-09-13T02:56:13.604Z,970.4
2017-09-13T02:57:15.767Z,970.4
2017-09-13T02:58:17.929Z,970.3
2017-09-13T02:59:20.064Z,970.3
2017-09-13T03:00:22.167Z,970.2
2017-09-13T03:01:24.518Z,970.2
2017-09-13T03:02:26.650Z,970.2
2017-09-13T03:03:28.823Z,970.2
2017-09-13T03:04:31.349Z,970.2
2017-09-13T03:05:33.515Z,970.2
2017-09-13T03:06:36.013Z,970.2
2017-09-13T03:07:38.119Z,970.1
2017-09-13T03:08:40.302Z,970.1
2017-09-13T03:09:42.650Z,970.1
2017-09-13T03:10:44.740Z,970.1
2017-09-13T03:11:47.190Z,970
2017-09-13T03:12:49.299Z,970
2017-09-13T03:13:51.451Z,969.8
2017-09-13T03:14:53.902Z,969.8
2017-09-13T03:15:56.089Z,969.8
2017-09-13T03:16:58.542Z,969.8
2017-09-13T03:18:00.647Z,969.8
2017-09-13T03:19:02.707Z,969.8
2017-09-13T03:20:05.430Z,969.9
2017-09-13T03:21:07.525Z,969.9
2017-09-13T03:22:09.862Z,969.8
2017-09-13T03:23:11.930Z,969.8
2017-09-13T03:24:14.015Z,969.8
2017-09-13T03:25:16.098Z,969.6
2017-09-13T03:26:18.207Z,969.6
2017-09-13T03:27:20.586Z,969.6
2017-09-13T03:28:22.685Z,969.5
2017-09-13T03:29:24.823Z,969.4
2017-09-13T03:30:26.901Z,969.5
2017-09-13T03:31:29.218Z,969.4
2017-09-13T03:32:31.743Z,969.3
2017-09-13T03:33:33.949Z,969.2
2017-09-13T03:34:36.057Z,969.3
2017-09-13T03:35:38.184Z,969.1
2017-09-13T03:36:40.292Z,969.1
2017-09-13T03:37:42.786Z,969.1
2017-09-13T03:38:44.907Z,969.1
2017-09-13T03:39:47.068Z,969
2017-09-13T03:40:49.155Z,968.8
2017-09-13T03:41:51.242Z,968.9
2017-09-13T03:42:53.631Z,968.8
2017-09-13T03:43:55.710Z,968.7
2017-09-13T03:44:57.811Z,968.8
2017-09-13T03:45:59.907Z,968.8
2017-09-13T03:47:01.982Z,968.8
2017-09-13T03:48:04.384Z,968.8
2017-09-13T03:49:06.473Z,968.8
2017-09-13T03:50:08.726Z,968.7
2017-09-13T03:51:10.827Z,968.7
2017-09-13T03:52:12.926Z,968.6
2017-09-13T03:53:15.347Z,968.7
2017-09-13T03:54:17.413Z,968.6
2017-09-13T03:55:19.472Z,968.5
2017-09-13T03:56:21.537Z,968.7
2017-09-13T03:57:23.645Z,968.7
2017-09-13T03:58:26.054Z,968.6
2017-09-13T03:59:28.234Z,968.7
2017-09-13T04:00:30.390Z,968.8
2017-09-13T04:01:32.645Z,968.8
2017-09-13T04:02:34.781Z,968.8
2017-09-13T04:03:37.259Z,968.7
2017-09-13T04:04:39.415Z,968.7
2017-09-13T04:05:41.554Z,968.6
2017-09-13T04:06:43.678Z,968.5
2017-09-13T04:07:45.839Z,968.4
2017-09-13T04:08:48.215Z,968.1
2017-09-13T04:09:50.309Z,968.1
2017-09-13T04:10:52.411Z,968.1
2017-09-13T04:11:54.469Z,968
2017-09-13T04:12:56.628Z,968
2017-09-13T04:13:59.072Z,967.7
2017-09-13T04:15:01.184Z,967.8
2017-09-13T04:16:03.271Z,967.6
2017-09-13T04:17:05.484Z,967.6
2017-09-13T04:18:07.671Z,967.6
2017-09-13T04:19:10.257Z,967.7
2017-09-13T04:20:12.375Z,967.9
2017-09-13T04:21:14.568Z,967.8
2017-09-13T04:22:16.755Z,967.8
2017-09-13T04:23:18.913Z,967.9
2017-09-13T04:24:21.520Z,968
2017-09-13T04:25:23.714Z,967.9
2017-09-13T04:26:25.852Z,967.7
2017-09-13T04:27:28.017Z,967.7
2017-09-13T04:28:30.120Z,967.6
2017-09-13T04:29:32.491Z,967.5
2017-09-13T04:30:34.637Z,967.5
2017-09-13T04:31:36.823Z,967.5
2017-09-13T04:32:39.087Z,967.4
2017-09-13T04:33:41.228Z,967.3
2017-09-13T04:34:43.823Z,967.1
2017-09-13T04:35:45.952Z,967.1
2017-09-13T04:36:48.145Z,966.9
2017-09-13T04:37:50.309Z,966.8
2017-09-13T04:38:52.441Z,966.9
2017-09-13T04:39:54.884Z,966.6
2017-09-13T04:40:56.977Z,966.7
2017-09-13T04:41:59.140Z,966.8
2017-09-13T04:43:01.212Z,966.9
2017-09-13T04:44:03.305Z,966.8
2017-09-13T04:45:05.759Z,966.9
2017-09-13T04:46:07.879Z,966.9
2017-09-13T04:47:10.076Z,966.7
2017-09-13T04:48:12.220Z,966.8
2017-09-13T04:49:14.397Z,966.8
2017-09-13T04:50:16.757Z,966.7
2017-09-13T04:51:18.847Z,966.5
2017-09-13T04:52:20.975Z,966.5
2017-09-13T04:53:23.057Z,966.5
2017-09-13T04:54:25.176Z,966.6
2017-09-13T04:55:27.533Z,966.4
2017-09-13T04:56:29.658Z,966.4
2017-09-13T04:57:31.783Z,966.5
2017-09-13T04:58:34.070Z,966.4
2017-09-13T04:59:36.238Z,966.3
2017-09-13T05:00:38.673Z,966.3
2017-09-13T05:01:40.872Z,966.2
2017-09-13T05:02:43.098Z,966.2
2017-09-13T05:03:45.267Z,966.4
2017-09-13T05:04:47.441Z,966.2
2017-09-13T05:05:49.891Z,966.3
2017-09-13T05:06:52.015Z,966.3
2017-09-13T05:07:54.118Z,966.4
2017-09-13T05:08:56.221Z,966.3
2017-09-13T05:09:58.352Z,966.1
2017-09-13T05:11:01.033Z,966.1
2017-09-13T05:12:03.203Z,966.3
2017-09-13T05:13:05.291Z,966.3
2017-09-13T05:14:07.506Z,966.4
2017-09-13T05:15:09.726Z,965.9
2017-09-13T05:16:12.265Z,965.9
2017-09-13T05:17:14.413Z,965.8
2017-09-13T05:18:16.513Z,966
2017-09-13T05:19:18.771Z,965.9
2017-09-13T05:20:20.853Z,965.9
2017-09-13T05:21:23.283Z,965.9
2017-09-13T05:22:25.371Z,965.9
2017-09-13T05:23:27.489Z,965.8
2017-09-13T05:24:29.566Z,966
2017-09-13T05:25:31.646Z,965.9
2017-09-13T05:26:34.323Z,965.8
2017-09-13T05:27:36.440Z,965.7
2017-09-13T05:28:38.571Z,965.7
2017-09-13T05:29:40.663Z,965.7
2017-09-13T05:30:42.759Z,966.6
2017-09-13T05:31:45.349Z,965.7
2017-09-13T05:32:47.474Z,965.7
2017-09-13T05:33:49.713Z,965.6
2017-09-13T05:34:52.057Z,965.6
2017-09-13T05:35:54.275Z,965.6
2017-09-13T05:36:56.832Z,965.5
2017-09-13T05:37:59.094Z,965.5
2017-09-13T05:39:01.361Z,965.4
2017-09-13T05:40:03.562Z,965.4
2017-09-13T05:41:05.786Z,965.5
2017-09-13T05:42:08.230Z,965.4
2017-09-13T05:43:10.736Z,965.6
2017-09-13T05:44:12.867Z,965.5
2017-09-13T05:45:15.025Z,965.6
2017-09-13T05:46:17.250Z,965.5
2017-09-13T05:47:19.759Z,965.6
2017-09-13T05:48:21.963Z,965.7
2017-09-13T05:49:24.096Z,965.7
2017-09-13T05:50:26.217Z,965.5
2017-09-13T05:51:28.327Z,965.7
2017-09-13T05:52:30.798Z,965.5
2017-09-13T05:53:32.883Z,965.5
2017-09-13T05:54:34.986Z,965.5
2017-09-13T05:55:37.198Z,965.4
2017-09-13T05:56:39.373Z,965.3
2017-09-13T05:57:41.816Z,965.3
2017-09-13T05:58:43.922Z,965.2
2017-09-13T05:59:46.035Z,965.3
2017-09-13T06:00:48.116Z,965.2
2017-09-13T06:01:50.278Z,965.5
2017-09-13T06:02:52.730Z,965
2017-09-13T06:03:54.860Z,965.5
2017-09-13T06:04:57.067Z,965.1
2017-09-13T06:05:59.297Z,965.2
2017-09-13T06:07:01.479Z,965.1
2017-09-13T06:08:04.004Z,965.1
2017-09-13T06:09:06.278Z,964.9
2017-09-13T06:10:08.387Z,965.3
2017-09-13T06:11:10.508Z,965.2
2017-09-13T06:12:12.602Z,965.1
2017-09-13T06:13:14.959Z,965.2
2017-09-13T06:14:17.056Z,964.9
2017-09-13T06:15:19.181Z,964.9
2017-09-13T06:16:21.309Z,964.8
2017-09-13T06:17:23.432Z,964.9
2017-09-13T06:18:25.892Z,965
2017-09-13T06:19:27.981Z,965
2017-09-13T06:20:30.122Z,965
2017-09-13T06:21:32.235Z,965.5
2017-09-13T06:22:34.416Z,964.9
2017-09-13T06:23:36.812Z,965
2017-09-13T06:24:38.882Z,964.9
2017-09-13T06:25:40.986Z,964.8
2017-09-13T06:26:43.185Z,964.7
2017-09-13T06:27:45.487Z,964.6
2017-09-13T06:28:47.940Z,964.7
2017-09-13T06:29:50.030Z,964.7
2017-09-13T06:30:52.125Z,964.6
2017-09-13T06:31:54.157Z,964.7
2017-09-13T06:32:56.273Z,964.6
2017-09-13T06:33:58.692Z,964.8
2017-09-13T06:35:00.856Z,964.5
2017-09-13T06:36:02.937Z,964.7
2017-09-13T06:37:05.110Z,964.7
2017-09-13T06:38:07.219Z,964.7
2017-09-13T06:39:09.635Z,964.6
2017-09-13T06:40:11.723Z,964.6
2017-09-13T06:41:13.803Z,964.7
2017-09-13T06:42:15.872Z,964.6
2017-09-13T06:43:17.943Z,964.7
2017-09-13T06:44:20.415Z,965.1
2017-09-13T06:45:22.514Z,964.6
2017-09-13T06:46:24.641Z,964.7
2017-09-13T06:47:26.729Z,964.8
2017-09-13T06:48:28.791Z,964.5
2017-09-13T06:49:31.160Z,964.5
2017-09-13T06:50:33.278Z,964.7
2017-09-13T06:51:35.433Z,964.7
2017-09-13T06:52:37.505Z,964.8
2017-09-13T06:53:39.576Z,964.6
2017-09-13T06:54:42.020Z,964.4
2017-09-13T06:55:44.105Z,964.6
2017-09-13T06:56:46.599Z,964.7
2017-09-13T06:57:48.759Z,964.6
2017-09-13T06:58:50.810Z,964.6
2017-09-13T06:59:53.315Z,964.6
2017-09-13T07:00:55.389Z,964.7
2017-09-13T07:01:57.488Z,964.6
2017-09-13T07:02:59.605Z,964.7
2017-09-13T07:04:01.634Z,964.6
2017-09-13T07:05:03.938Z,964.6
2017-09-13T07:06:06.133Z,964.5
2017-09-13T07:07:08.260Z,964.6
2017-09-13T07:08:10.424Z,964.6
2017-09-13T07:09:12.525Z,964.6
2017-09-13T07:10:14.911Z,964.4
2017-09-13T07:11:17.046Z,964.7
2017-09-13T07:12:19.113Z,964.4
2017-09-13T07:13:21.195Z,964.5
2017-09-13T07:14:23.389Z,964.6
2017-09-13T07:15:25.854Z,964.4
2017-09-13T07:16:27.940Z,964.4
2017-09-13T07:17:30.129Z,964.5
2017-09-13T07:18:32.171Z,964.4
2017-09-13T07:19:34.262Z,964.3
2017-09-13T07:20:36.970Z,964.3
2017-09-13T07:21:39.153Z,964.4
2017-09-13T07:22:41.326Z,964.3
2017-09-13T07:23:43.413Z,964.2
2017-09-13T07:24:45.497Z,964.4
2017-09-13T07:25:47.961Z,964.4
2017-09-13T07:26:50.082Z,964.4
2017-09-13T07:27:52.245Z,964.5
2017-09-13T07:28:54.330Z,964.5
2017-09-13T07:29:56.438Z,964.5
2017-09-13T07:30:58.813Z,964.4
2017-09-13T07:32:00.979Z,964.4
2017-09-13T07:33:03.091Z,964.4
2017-09-13T07:34:05.339Z,964.4
2017-09-13T07:35:07.419Z,964.4
2017-09-13T07:36:09.969Z,964.2
2017-09-13T07:37:12.048Z,964.2
2017-09-13T07:38:14.084Z,964.3
2017-09-13T07:39:16.169Z,964.4
2017-09-13T07:40:18.224Z,964.3
2017-09-13T07:41:20.594Z,964.3
2017-09-13T07:42:22.864Z,964.2
2017-09-13T07:43:25.026Z,964.5
2017-09-13T07:44:27.150Z,964.4
2017-09-13T07:45:29.243Z,964.4
2017-09-13T07:46:31.730Z,964.2
2017-09-13T07:47:33.869Z,964.3
2017-09-13T07:48:35.975Z,964.4
2017-09-13T07:49:38.174Z,964.5
2017-09-13T07:50:40.310Z,964.4
2017-09-13T07:51:42.853Z,964.7
2017-09-13T07:52:45.009Z,964.4
2017-09-13T07:53:47.079Z,964.7
2017-09-13T07:54:49.205Z,964.4
2017-09-13T07:55:51.300Z,964.7
2017-09-13T07:56:53.732Z,964.4
2017-09-13T07:57:55.848Z,964.5
2017-09-13T07:58:57.939Z,964.3
2017-09-13T08:00:00.045Z,964.2
2017-09-13T08:01:02.172Z,964.4
2017-09-13T08:02:04.596Z,964.4
2017-09-13T08:03:06.733Z,964.4
2017-09-13T08:04:08.896Z,964.5
2017-09-13T08:05:11.005Z,964.7
2017-09-13T08:06:13.121Z,964.4
2017-09-13T08:07:15.549Z,964.7
2017-09-13T08:08:17.685Z,964.3
2017-09-13T08:09:19.746Z,964.3
2017-09-13T08:10:21.913Z,964.5
2017-09-13T08:11:24.006Z,964.5
2017-09-13T08:12:26.392Z,964.6
2017-09-13T08:13:28.461Z,964.5
2017-09-13T08:14:30.562Z,964.5
2017-09-13T08:15:32.656Z,964.5
2017-09-13T08:16:34.754Z,964.7
2017-09-13T08:17:37.201Z,964.7
2017-09-13T08:18:39.339Z,964.5
2017-09-13T08:19:41.436Z,964.7
2017-09-13T08:20:43.563Z,964.6
2017-09-13T08:21:45.803Z,964.6
2017-09-13T08:22:48.234Z,964.5
2017-09-13T08:23:50.317Z,964.5
2017-09-13T08:24:52.466Z,964.5
2017-09-13T08:25:54.630Z,964.3
2017-09-13T08:26:56.746Z,964.5
2017-09-13T08:27:59.125Z,964.5
2017-09-13T08:29:01.270Z,964.4
2017-09-13T08:30:03.397Z,964.4
2017-09-13T08:31:05.582Z,964.6
2017-09-13T08:32:07.748Z,964.4
2017-09-13T08:33:10.510Z,964.5
2017-09-13T08:34:13.067Z,964.6
2017-09-13T08:35:15.187Z,964.5
2017-09-13T08:36:17.291Z,964.4
2017-09-13T08:37:19.619Z,964.3
2017-09-13T08:38:22.034Z,964.3
2017-09-13T08:39:24.162Z,964.7
2017-09-13T08:40:26.279Z,964.5
2017-09-13T08:41:28.354Z,964.4
2017-09-13T08:42:30.483Z,964.5
2017-09-13T08:43:32.888Z,964.4
2017-09-13T08:44:34.982Z,964.4
2017-09-13T08:45:37.082Z,964.2
2017-09-13T08:46:39.136Z,964.3
2017-09-13T08:47:41.270Z,964.3
2017-09-13T08:48:43.653Z,964.3
2017-09-13T08:49:45.729Z,964.6
2017-09-13T08:50:47.857Z,964.4
2017-09-13T08:51:49.944Z,964.6
2017-09-13T08:52:52.089Z,964.6
2017-09-13T08:53:54.459Z,964.5
2017-09-13T08:54:56.593Z,964.4
2017-09-13T08:55:58.718Z,964.5
2017-09-13T08:57:00.802Z,964.5
2017-09-13T08:58:02.924Z,964.5
2017-09-13T08:59:05.273Z,964.6
2017-09-13T09:00:07.423Z,964.5
2017-09-13T09:01:09.535Z,964.5
2017-09-13T09:02:11.666Z,964.7
2017-09-13T09:03:13.736Z,964.7
2017-09-13T09:04:16.143Z,964.5
2017-09-13T09:05:18.291Z,964.5
2017-09-13T09:06:20.360Z,964.5
2017-09-13T09:07:22.458Z,964.4
2017-09-13T09:08:24.647Z,964.6
2017-09-13T09:09:27.099Z,964.5
2017-09-13T09:10:29.183Z,964.5
2017-09-13T09:11:31.403Z,964.4
2017-09-13T09:12:33.466Z,964.6
2017-09-13T09:13:35.541Z,964.6
2017-09-13T09:14:37.908Z,964.5
2017-09-13T09:15:39.988Z,964.6
2017-09-13T09:16:42.097Z,964.7
2017-09-13T09:17:44.213Z,964.8
2017-09-13T09:18:46.316Z,964.7
2017-09-13T09:19:48.686Z,964.7
2017-09-13T09:20:50.772Z,964.8
2017-09-13T09:21:52.891Z,964.7
2017-09-13T09:22:55.028Z,964.6
2017-09-13T09:23:57.203Z,964.8
2017-09-13T09:24:59.614Z,964.8
2017-09-13T09:26:01.865Z,964.7
2017-09-13T09:27:03.951Z,964.7
2017-09-13T09:28:06.055Z,964.6
2017-09-13T09:29:08.130Z,964.6
2017-09-13T09:30:10.647Z,964.7
2017-09-13T09:31:12.687Z,964.5
2017-09-13T09:32:14.788Z,964.6
2017-09-13T09:33:16.869Z,964.6
2017-09-13T09:34:18.987Z,964.6
2017-09-13T09:35:21.505Z,964.5
2017-09-13T09:36:23.631Z,964.8
2017-09-13T09:37:25.778Z,964.5
2017-09-13T09:38:27.891Z,964.5
2017-09-13T09:39:30.905Z,964.3
2017-09-13T09:40:33.290Z,964.6
2017-09-13T09:41:35.471Z,964.6
2017-09-13T09:42:37.673Z,964.6
2017-09-13T09:43:39.809Z,964.7
2017-09-13T09:44:41.951Z,964.6
2017-09-13T09:45:44.384Z,964.4
2017-09-13T09:46:46.486Z,964.5
2017-09-13T09:47:48.619Z,964.8
2017-09-13T09:48:50.805Z,964.6
2017-09-13T09:49:52.923Z,964.8
2017-09-13T09:50:55.297Z,964.7
2017-09-13T09:51:57.413Z,964.8
2017-09-13T09:52:59.603Z,964.8
2017-09-13T09:54:01.769Z,964.8
2017-09-13T09:55:03.856Z,964.7
2017-09-13T09:56:06.286Z,964.6
2017-09-13T09:57:08.455Z,964.5
2017-09-13T09:58:10.595Z,964.5
2017-09-13T09:59:12.754Z,964.6
2017-09-13T10:00:14.872Z,964.3
2017-09-13T10:01:17.195Z,964.3
2017-09-13T10:02:19.306Z,964.1
2017-09-13T10:03:21.451Z,964.1
2017-09-13T10:04:23.610Z,964.1
2017-09-13T10:05:25.719Z,963.9
2017-09-13T10:06:28.228Z,963.8
2017-09-13T10:07:30.335Z,963.8
2017-09-13T10:08:32.440Z,963.6
2017-09-13T10:09:34.516Z,963.6
2017-09-13T10:10:36.622Z,963.6
2017-09-13T10:11:39.075Z,963.6
2017-09-13T10:12:41.269Z,963.8
2017-09-13T10:13:43.438Z,963.7
2017-09-13T10:14:45.533Z,963.6
2017-09-13T10:15:47.673Z,963.6
2017-09-13T10:16:50.179Z,963.7
2017-09-13T10:17:52.291Z,963.7
2017-09-13T10:18:54.370Z,963.7
2017-09-13T10:19:56.506Z,963.6
2017-09-13T10:20:58.630Z,963.6
2017-09-13T10:22:01.114Z,963.5
2017-09-13T10:23:03.233Z,963.3
2017-09-13T10:24:05.420Z,963.4
2017-09-13T10:25:07.604Z,963.5
2017-09-13T10:26:09.754Z,963.4
2017-09-13T10:27:12.204Z,963.6
2017-09-13T10:28:14.316Z,963.6
2017-09-13T10:29:16.432Z,963.5
2017-09-13T10:30:19.494Z,963.4
2017-09-13T10:31:21.630Z,963.6
2017-09-13T10:32:24.111Z,963.7
2017-09-13T10:33:26.306Z,963.6
2017-09-13T10:34:28.401Z,963.6
2017-09-13T10:35:30.659Z,963.6
2017-09-13T10:36:32.743Z,963.7
2017-09-13T10:37:35.198Z,963.7
2017-09-13T10:38:37.371Z,963.8
2017-09-13T10:39:39.479Z,963.8
2017-09-13T10:40:41.655Z,963.7
2017-09-13T10:41:43.778Z,963.7
2017-09-13T10:42:46.409Z,963.7
2017-09-13T10:43:48.559Z,963.7
2017-09-13T10:44:50.615Z,963.7
2017-09-13T10:45:52.706Z,963.8
2017-09-13T10:46:54.827Z,963.7
2017-09-13T10:47:57.254Z,963.9
2017-09-13T10:48:59.361Z,963.8
2017-09-13T10:50:01.477Z,963.7
2017-09-13T10:51:03.589Z,963.7
2017-09-13T10:52:05.715Z,963.8
2017-09-13T10:53:08.144Z,963.8
2017-09-13T10:54:10.233Z,963.7
2017-09-13T10:55:12.351Z,963.9
2017-09-13T10:56:14.438Z,963.8
2017-09-13T10:57:16.496Z,963.7
2017-09-13T10:58:18.932Z,963.9
2017-09-13T10:59:21.082Z,964
2017-09-13T11:00:23.352Z,964
2017-09-13T11:01:25.420Z,963.8
2017-09-13T11:02:27.506Z,964.1
2017-09-13T11:03:29.937Z,964
2017-09-13T11:04:32.155Z,964
2017-09-13T11:05:34.280Z,964
2017-09-13T11:06:36.398Z,964.1
2017-09-13T11:07:38.502Z,964.1
2017-09-13T11:08:40.958Z,964.1
2017-09-13T11:09:43.121Z,964
2017-09-13T11:10:45.319Z,964.1
2017-09-13T11:11:47.390Z,964
2017-09-13T11:12:49.465Z,964
2017-09-13T11:13:51.913Z,964
2017-09-13T11:14:54.021Z,964
2017-09-13T11:15:56.135Z,964
2017-09-13T11:16:58.291Z,963.9
2017-09-13T11:18:00.621Z,963.9
2017-09-13T11:19:03.127Z,964.1
2017-09-13T11:20:05.260Z,964.2
2017-09-13T11:21:07.374Z,964.3
2017-09-13T11:22:09.463Z,964.1
2017-09-13T11:23:11.584Z,964.1
2017-09-13T11:24:14.073Z,964.2
2017-09-13T11:25:16.237Z,964
2017-09-13T11:26:18.342Z,963.9
2017-09-13T11:27:20.444Z,964.1
2017-09-13T11:28:22.596Z,964
2017-09-13T11:29:25.018Z,964
2017-09-13T11:30:27.152Z,964
2017-09-13T11:31:29.226Z,964.1
2017-09-13T11:32:31.323Z,963.9
2017-09-13T11:33:33.491Z,964
2017-09-13T11:34:35.987Z,964
2017-09-13T11:35:38.138Z,964
2017-09-13T11:36:40.288Z,964.1
2017-09-13T11:37:42.430Z,964
2017-09-13T11:38:44.525Z,964
2017-09-13T11:39:46.961Z,964
2017-09-13T11:40:49.110Z,964.1
2017-09-13T11:41:51.237Z,964.1
2017-09-13T11:42:53.336Z,964
2017-09-13T11:43:55.453Z,964
2017-09-13T11:44:57.883Z,964.2
2017-09-13T11:46:00.011Z,964.2
2017-09-13T11:47:02.132Z,964
2017-09-13T11:48:04.237Z,964.1
2017-09-13T11:49:06.331Z,964
2017-09-13T11:50:08.779Z,964.2
2017-09-13T11:51:10.914Z,964.3
2017-09-13T11:52:13.009Z,964.3
2017-09-13T11:53:15.078Z,964.1
2017-09-13T11:54:17.169Z,964.2
2017-09-13T11:55:19.640Z,964.2
2017-09-13T11:56:21.731Z,964.1
2017-09-13T11:57:23.782Z,964.3
2017-09-13T11:58:25.906Z,964
2017-09-13T11:59:28.033Z,964.3
2017-09-13T12:00:30.554Z,964
2017-09-13T12:01:32.765Z,964.3
2017-09-13T12:02:34.873Z,964.4
2017-09-13T12:03:37.174Z,964.3
2017-09-13T12:04:39.275Z,964.5
2017-09-13T12:05:41.721Z,964.4
2017-09-13T12:06:43.786Z,964.1
2017-09-13T12:07:45.895Z,964.3
2017-09-13T12:08:48.006Z,964.3
2017-09-13T12:09:50.205Z,964.5
2017-09-13T12:10:52.641Z,964.5
2017-09-13T12:11:54.769Z,964.7
2017-09-13T12:12:56.899Z,964.6
2017-09-13T12:13:59.076Z,964.5
2017-09-13T12:15:01.186Z,964.4
2017-09-13T12:16:03.647Z,964.6
2017-09-13T12:17:05.804Z,964.5
2017-09-13T12:18:07.919Z,964.6
2017-09-13T12:19:10.014Z,964.7
2017-09-13T12:20:12.176Z,964.7
2017-09-13T12:21:14.620Z,964.5
2017-09-13T12:22:16.734Z,964.6
2017-09-13T12:23:18.865Z,964.7
2017-09-13T12:24:20.962Z,964.5
2017-09-13T12:25:23.119Z,964.7
2017-09-13T12:26:25.519Z,964.7
2017-09-13T12:27:27.608Z,964.7
2017-09-13T12:28:29.730Z,964.7
2017-09-13T12:29:31.868Z,964.6
2017-09-13T12:30:34.001Z,964.8
2017-09-13T12:31:36.404Z,964.7
2017-09-13T12:32:38.484Z,964.7
2017-09-13T12:33:40.596Z,964.5
2017-09-13T12:34:42.708Z,964.7
2017-09-13T12:35:44.821Z,964.5
2017-09-13T12:36:47.221Z,964.7
2017-09-13T12:37:49.424Z,964.6
2017-09-13T12:38:51.573Z,964.7
2017-09-13T12:39:53.742Z,964.7
2017-09-13T12:40:56.113Z,964.7
2017-09-13T12:41:58.551Z,964.8
2017-09-13T12:43:00.657Z,964.7
2017-09-13T12:44:02.803Z,964.9
2017-09-13T12:45:04.963Z,964.9
2017-09-13T12:46:07.050Z,964.9
2017-09-13T12:47:09.587Z,964.8
2017-09-13T12:48:11.746Z,964.8
2017-09-13T12:49:13.847Z,964.9
2017-09-13T12:50:15.948Z,964.9
2017-09-13T12:51:18.042Z,964.8
2017-09-13T12:52:20.456Z,965
2017-09-13T12:53:22.575Z,964.7
2017-09-13T12:54:24.672Z,964.8
2017-09-13T12:55:26.772Z,964.7
2017-09-13T12:56:28.869Z,964.7
2017-09-13T12:57:31.257Z,964.8
2017-09-13T12:58:33.363Z,964.8
2017-09-13T12:59:35.431Z,964.7
2017-09-13T13:00:37.526Z,964.9
2017-09-13T13:01:39.645Z,964.7
2017-09-13T13:02:42.210Z,964.9
2017-09-13T13:03:44.286Z,964.7
2017-09-13T13:04:46.425Z,964.9
2017-09-13T13:05:48.517Z,964.8
2017-09-13T13:06:50.651Z,964.9
2017-09-13T13:07:53.032Z,964.9
2017-09-13T13:08:55.080Z,964.8
2017-09-13T13:09:57.143Z,965
2017-09-13T13:10:59.168Z,964.9
2017-09-13T13:12:01.584Z,964.8
2017-09-13T13:13:04.093Z,965
2017-09-13T13:14:06.155Z,965
2017-09-13T13:15:08.312Z,964.9
2017-09-13T13:16:10.370Z,965
2017-09-13T13:17:12.416Z,964.7
2017-09-13T13:18:14.899Z,964.8
2017-09-13T13:19:16.976Z,964.7
2017-09-13T13:20:19.065Z,964.9
2017-09-13T13:21:21.174Z,965
2017-09-13T13:22:23.232Z,964.9
2017-09-13T13:23:25.688Z,964.9
2017-09-13T13:24:27.736Z,965